Lawrence H.gianella — NBBK — position and weather

sailwx.info

Track history (hours):
 
Tides and Currents Weather Stations Pressure Air Temp Water Temp Dewpoint Dewpoint Depression Visibility Wind Speed Wind Dir Waves Ship Positions

Lawrence H.gianella

Last reported at 2018-Jun-18 12:59 UTC. Time now 2018-Jun-18 12:58 UTC.
Position N 36°53' W 076°20'.

Type: Ship. MMSI: 367128000.

Date/timePositionNaut miles runAvg speedWind from/ knotsBaromVisibWave heightAir tempDewpointWater temp
2018-Jun-18 12:59N 36°53' W 076°20'0 0.0
2018-Jun-18 12:29N 36°53' W 076°20'0 0.0
2018-Jun-18 11:59N 36°53' W 076°20'0 0.0
2018-Jun-18 11:29N 36°53' W 076°20'0 0.0
2018-Jun-18 10:59N 36°53' W 076°20'0 0.0
2018-Jun-18 10:29N 36°53' W 076°20'0 0.0
2018-Jun-18 09:59N 36°53' W 076°20'0 0.0
2018-Jun-18 09:29N 36°53' W 076°20'0 0.0
2018-Jun-18 08:59N 36°53' W 076°20'0 0.0
2018-Jun-18 08:29N 36°53' W 076°20'0 0.0
2018-Jun-18 07:59N 36°53' W 076°20'0 0.0
2018-Jun-18 07:29N 36°53' W 076°20'0 0.0
2018-Jun-18 06:59N 36°53' W 076°20'0 0.0
2018-Jun-18 06:29N 36°53' W 076°20'0 0.0
2018-Jun-18 05:59N 36°53' W 076°20'0 0.0
2018-Jun-18 05:29N 36°53' W 076°20'0 0.0
2018-Jun-18 04:59N 36°53' W 076°20'0 0.0
2018-Jun-18 04:29N 36°53' W 076°20'0 0.0
2018-Jun-18 03:59N 36°53' W 076°20'0 0.0
2018-Jun-18 03:29N 36°53' W 076°20'0 0.0
2018-Jun-18 02:59N 36°53' W 076°20'0 0.0
2018-Jun-18 02:29N 36°53' W 076°20'0 0.0
2018-Jun-18 01:59N 36°53' W 076°20'0 0.0
2018-Jun-18 01:29N 36°53' W 076°20'0 0.0
2018-Jun-18 00:59N 36°53' W 076°20'0 0.0
2018-Jun-18 00:29N 36°53' W 076°20'0 0.0
2018-Jun-17 23:59N 36°53' W 076°20'0 0.0
2018-Jun-17 23:29N 36°53' W 076°20'0 0.0
2018-Jun-17 22:59N 36°53' W 076°20'0 0.0
2018-Jun-17 22:29N 36°53' W 076°20'0 0.0
2018-Jun-17 21:59N 36°53' W 076°20'0 0.0
2018-Jun-17 21:29N 36°53' W 076°20'0 0.0
2018-Jun-17 20:59N 36°53' W 076°20'0 0.0
2018-Jun-17 20:29N 36°53' W 076°20'0 0.0
2018-Jun-17 19:59N 36°53' W 076°20'0 0.0
2018-Jun-17 19:29N 36°53' W 076°20'0 0.0
2018-Jun-17 18:59N 36°53' W 076°20'0 0.0
2018-Jun-17 18:29N 36°53' W 076°20'0 0.0
2018-Jun-17 17:59N 36°53' W 076°20'0 0.0
2018-Jun-17 17:29N 36°53' W 076°20'0 0.0
2018-Jun-17 16:59N 36°53' W 076°20'0 0.0
2018-Jun-17 16:29N 36°53' W 076°20'0 0.0
2018-Jun-17 15:59N 36°53' W 076°20'0 0.0
2018-Jun-17 15:29N 36°53' W 076°20'0 0.0
2018-Jun-17 14:59N 36°53' W 076°20'0 0.0
2018-Jun-17 14:30N 36°53' W 076°20'2 3.1
2018-Jun-17 13:58N 36°55' W 076°20'  
2018-Jun-11 08:34N 09°41' W 079°44'614.2
2018-Jun-11 08:08N 09°35' W 079°47'214.2
2018-Jun-11 07:58N 09°34' W 079°48'714.4
2018-Jun-11 07:30N 09°29' W 079°53'612.6
2018-Jun-11 07:00N 09°23' W 079°55'4 7.6
2018-Jun-11 06:30N 09°19' W 079°55'2 4.7
2018-Jun-11 06:00N 09°17' W 079°55'0 0.3
2018-Jun-11 05:30N 09°16' W 079°55'0 0.7
2018-Jun-11 05:00N 09°16' W 079°55'1 2.2
2018-Jun-11 04:30N 09°15' W 079°55'5 9.9
2018-Jun-11 04:00N 09°11' W 079°52'12 0.2
2018-Jun-09 01:03N 09°23' W 079°56'0 0.0
2018-Jun-09 01:00N 09°23' W 079°56'0 0.1
2018-Jun-09 00:30N 09°23' W 079°56'0 0.3
2018-Jun-09 00:00N 09°23' W 079°55'0 0.2
2018-Jun-08 23:30N 09°23' W 079°55'2 4.1
2018-Jun-08 23:01N 09°25' W 079°55'510.7
2018-Jun-08 22:30N 09°30' W 079°54'  
Track history (hours):
 
Tides and Currents Weather Stations Pressure Air Temp Water Temp Dewpoint Dewpoint Depression Visibility Wind Speed Wind Dir Waves Ship Positions

Lawrence H.gianella

Last reported at 2018-Jun-18 12:59 UTC. Time now 2018-Jun-18 12:58 UTC.
Position N 36°53' W 076°20'.

Type: Ship. MMSI: 367128000.

Date/timePositionNaut miles runAvg speedWind from/ knotsBaromVisibWave heightAir tempDewpointWater temp
2018-Jun-18 12:59N 36°53' W 076°20'0 0.0
2018-Jun-18 12:29N 36°53' W 076°20'0 0.0
2018-Jun-18 11:59N 36°53' W 076°20'0 0.0
2018-Jun-18 11:29N 36°53' W 076°20'0 0.0
2018-Jun-18 10:59N 36°53' W 076°20'0 0.0
2018-Jun-18 10:29N 36°53' W 076°20'0 0.0
2018-Jun-18 09:59N 36°53' W 076°20'0 0.0
2018-Jun-18 09:29N 36°53' W 076°20'0 0.0
2018-Jun-18 08:59N 36°53' W 076°20'0 0.0
2018-Jun-18 08:29N 36°53' W 076°20'0 0.0
2018-Jun-18 07:59N 36°53' W 076°20'0 0.0
2018-Jun-18 07:29N 36°53' W 076°20'0 0.0
2018-Jun-18 06:59N 36°53' W 076°20'0 0.0
2018-Jun-18 06:29N 36°53' W 076°20'0 0.0
2018-Jun-18 05:59N 36°53' W 076°20'0 0.0
2018-Jun-18 05:29N 36°53' W 076°20'0 0.0
2018-Jun-18 04:59N 36°53' W 076°20'0 0.0
2018-Jun-18 04:29N 36°53' W 076°20'0 0.0
2018-Jun-18 03:59N 36°53' W 076°20'0 0.0
2018-Jun-18 03:29N 36°53' W 076°20'0 0.0
2018-Jun-18 02:59N 36°53' W 076°20'0 0.0
2018-Jun-18 02:29N 36°53' W 076°20'0 0.0
2018-Jun-18 01:59N 36°53' W 076°20'0 0.0
2018-Jun-18 01:29N 36°53' W 076°20'0 0.0
2018-Jun-18 00:59N 36°53' W 076°20'0 0.0
2018-Jun-18 00:29N 36°53' W 076°20'0 0.0
2018-Jun-17 23:59N 36°53' W 076°20'0 0.0
2018-Jun-17 23:29N 36°53' W 076°20'0 0.0
2018-Jun-17 22:59N 36°53' W 076°20'0 0.0
2018-Jun-17 22:29N 36°53' W 076°20'0 0.0
2018-Jun-17 21:59N 36°53' W 076°20'0 0.0
2018-Jun-17 21:29N 36°53' W 076°20'0 0.0
2018-Jun-17 20:59N 36°53' W 076°20'0 0.0
2018-Jun-17 20:29N 36°53' W 076°20'0 0.0
2018-Jun-17 19:59N 36°53' W 076°20'0 0.0
2018-Jun-17 19:29N 36°53' W 076°20'0 0.0
2018-Jun-17 18:59N 36°53' W 076°20'0 0.0
2018-Jun-17 18:29N 36°53' W 076°20'0 0.0
2018-Jun-17 17:59N 36°53' W 076°20'0 0.0
2018-Jun-17 17:29N 36°53' W 076°20'0 0.0
2018-Jun-17 16:59N 36°53' W 076°20'0 0.0
2018-Jun-17 16:29N 36°53' W 076°20'0 0.0
2018-Jun-17 15:59N 36°53' W 076°20'0 0.0
2018-Jun-17 15:29N 36°53' W 076°20'0 0.0
2018-Jun-17 14:59N 36°53' W 076°20'0 0.0
2018-Jun-17 14:30N 36°53' W 076°20'2 3.1
2018-Jun-17 13:58N 36°55' W 076°20'  
2018-Jun-11 08:34N 09°41' W 079°44'614.2
2018-Jun-11 08:08N 09°35' W 079°47'214.2
2018-Jun-11 07:58N 09°34' W 079°48'714.4
2018-Jun-11 07:30N 09°29' W 079°53'612.6
2018-Jun-11 07:00N 09°23' W 079°55'4 7.6
2018-Jun-11 06:30N 09°19' W 079°55'2 4.7
2018-Jun-11 06:00N 09°17' W 079°55'0 0.3
2018-Jun-11 05:30N 09°16' W 079°55'0 0.7
2018-Jun-11 05:00N 09°16' W 079°55'1 2.2
2018-Jun-11 04:30N 09°15' W 079°55'5 9.9
2018-Jun-11 04:00N 09°11' W 079°52'12 0.2
2018-Jun-09 01:03N 09°23' W 079°56'0 0.0
2018-Jun-09 01:00N 09°23' W 079°56'0 0.1
2018-Jun-09 00:30N 09°23' W 079°56'0 0.3
2018-Jun-09 00:00N 09°23' W 079°55'0 0.2
2018-Jun-08 23:30N 09°23' W 079°55'2 4.1
2018-Jun-08 23:01N 09°25' W 079°55'510.7
2018-Jun-08 22:30N 09°30' W 079°54'  

Dump ship's entire track history